Airfield :
LOGIN :

Register | Disclaimer

   EN    FR    IT 

 










Legend :    VFR   Marginal VFR   IFR   Intensive IFR   Very Intensive IFR
Visi :
Ceiling :
>= 8 km
>= 3000ft
5 to 8 km
1000 to 3000 ft
1500m to 5 km
500 to 1000 ft
800 to 1500m
200 to 500 ft
< 800m
< 200 ft
Symbols :   Thunderstorms  Fog  Heavy snow  Heavy precipitations  Wind > 20 kt
SIGMETs :     Misc.  Thunderstorms  Icing  Turbulence  Mountain Waves  Volcanic Ashes






- Airport Elevation : 288 ft
- IATA code : BZZ


EGVN - RAF Brize Norton

CURRENT METAR :
  • 301720Z 02012KT 9999 FEW026 08/03 Q1032 NOSIG RMK BLU BLU

EXPIRED METARs :
  • 301650Z 04013KT 9999 FEW027 SCT030 09/03 Q1032 NOSIG RMK BLU BLU
  • 301624Z 04013KT 9999 FEW027 BKN030 08/02 Q1032 NOSIG RMK BLU BLU
  • 301550Z 03012KT 9999 FEW020 BKN030 08/04 Q1032 TEMPO SCT022 RMK BLU TEMPO WHT

TAF AMD TAF EGVN
Valid from the 30 at 15:00 until the 31 at 15:00 UTC


301456Z 3015/3115 03015KT 9999 SCT030
PROB40
TEMPO 3015/3021 04017G27KT 4000 SHRA FEW012 SCT020
PROB30
TEMPO 3021/3103 SCT012



MET'MAP, your aeronautical weather chart ! - Copyright ORBIFLY December 2007 - Disclaimer

ORBIFLY MET'MAP TEAM :

Programming & Development : Alexandra Zaïnal
Concept & original design : Baudouin d'Aumeries
Assistance for programming : Marc-Olivier Méhu
Technical & hardware support : Manuel Goepfert

Contact : metmap@orbifly.com




SOURCES & CREDITS :

   NOAA